Time;durP1;ratioP1;P1;durP2;ratioP2;P2;SDS_P1;SDS_P2;PMS_P1;PMS_P2;Temp;Humidity;BMP_temperature;BMP_pressure;BME280_temperature;BME280_humidity;BME280_pressure;Samples;Min_cycle;Max_cycle;Signal;HPM_P1;HPM_P2
2023/06/18 00:00:07;;;;;;;0.40;0.40;;;;;;;19.24;38.38;96624.25;29395;202;63005;-50
2023/06/18 00:00:38;;;;;;;0.40;0.40;;;;;;;19.23;38.28;96628.16;29395;336;63009;-51
2023/06/18 00:01:11;;;;;;;0.40;0.40;;;;;;;19.22;38.73;96626.56;29395;215;63005;-50
2023/06/18 00:01:42;;;;;;;0.40;0.40;;;;;;;19.21;38.55;96622.22;29394;287;64003;-51
2023/06/18 00:02:13;;;;;;;0.30;0.30;;;;;;;19.19;38.53;96627.28;29395;335;63004;-50
2023/06/18 00:02:45;;;;;;;0.40;0.40;;;;;;;19.17;38.62;96626.84;29395;271;63009;-51
2023/06/18 00:03:16;;;;;;;0.40;0.40;;;;;;;19.17;38.85;96629.59;29395;203;63004;-51
2023/06/18 00:03:49;;;;;;;0.30;0.30;;;;;;;19.17;38.64;96626.84;29395;226;63014;-51
2023/06/18 00:04:20;;;;;;;0.40;0.40;;;;;;;19.16;38.70;96622.47;29395;222;63004;-56
2023/06/18 00:04:53;;;;;;;0.77;0.77;;;;;;;19.17;38.70;96624.09;29395;209;63008;-49
2023/06/18 00:05:24;;;;;;;4.75;2.97;;;;;;;19.16;38.54;96627.97;29395;203;63005;-49
2023/06/18 00:05:59;;;;;;;0.30;0.30;;;;;;;19.17;38.76;96628.78;29395;209;63009;-51
2023/06/18 00:06:30;;;;;;;0.40;0.40;;;;;;;19.15;38.85;96626.38;29395;218;63005;-57
2023/06/18 00:07:05;;;;;;;0.40;0.40;;;;;;;19.14;38.72;96629.50;29394;245;64013;-50
2023/06/18 00:07:37;;;;;;;0.40;0.40;;;;;;;19.12;38.95;96627.09;29395;338;63005;-51
2023/06/18 00:08:08;;;;;;;0.40;0.40;;;;;;;19.10;38.72;96632.16;29395;200;63009;-51
2023/06/18 00:08:39;;;;;;;0.40;0.40;;;;;;;19.08;39.09;96620.69;29395;208;63005;-51
2023/06/18 00:09:11;;;;;;;0.30;0.30;;;;;;;19.07;38.75;96624.59;29395;239;63009;-50
2023/06/18 00:09:42;;;;;;;0.30;0.30;;;;;;;19.06;39.24;96631.25;29395;231;63004;-51
2023/06/18 00:10:15;;;;;;;0.40;0.40;;;;;;;19.05;38.98;96626.94;29395;197;63009;-51
2023/06/18 00:10:47;;;;;;;0.30;0.30;;;;;;;19.03;39.21;96624.53;29395;211;63004;-50
2023/06/18 00:11:19;;;;;;;0.40;0.40;;;;;;;19.02;38.92;96622.13;29395;221;63009;-50
2023/06/18 00:11:51;;;;;;;0.40;0.40;;;;;;;19.02;39.31;96627.62;29395;218;63004;-51
2023/06/18 00:12:22;;;;;;;0.40;0.40;;;;;;;19.02;39.20;96622.94;29394;221;64013;-52
2023/06/18 00:12:54;;;;;;;0.40;0.40;;;;;;;19.01;39.06;96621.34;29395;209;63005;-50
2023/06/18 00:13:25;;;;;;;0.40;0.40;;;;;;;19.01;39.20;96615.03;29395;206;63009;-51
2023/06/18 00:13:57;;;;;;;0.30;0.30;;;;;;;19.01;39.27;96621.34;29395;214;63005;-51
2023/06/18 00:14:28;;;;;;;0.40;0.40;;;;;;;19.02;39.46;96627.62;29395;273;63009;-51
2023/06/18 00:15:00;;;;;;;0.40;0.40;;;;;;;19.00;39.19;96627.19;29395;355;63008;-51
2023/06/18 00:15:32;;;;;;;0.40;0.40;;;;;;;18.99;39.33;96617.34;29395;255;63009;-50
2023/06/18 00:16:04;;;;;;;0.30;0.30;;;;;;;18.97;39.60;96622.41;29394;230;64020;-50
2023/06/18 00:16:36;;;;;;;0.35;0.35;;;;;;;18.95;39.23;96627.44;29395;220;63009;-51
2023/06/18 00:17:07;;;;;;;0.40;0.40;;;;;;;18.93;39.40;96622.31;29395;220;63007;-51
2023/06/18 00:17:40;;;;;;;0.40;0.40;;;;;;;18.92;39.48;96617.97;29395;287;63009;-50
2023/06/18 00:18:15;;;;;;;0.40;0.40;;;;;;;18.92;39.53;96622.66;29395;338;63004;-50
2023/06/18 00:18:46;;;;;;;0.40;0.40;;;;;;;18.91;39.45;96621.06;29395;363;63008;-52
2023/06/18 00:19:17;;;;;;;0.40;0.40;;;;;;;18.92;39.40;96622.66;29395;234;63004;-50
2023/06/18 00:19:49;;;;;;;0.40;0.40;;;;;;;18.92;39.53;96628.16;29395;215;63008;-51
2023/06/18 00:20:21;;;;;;;0.40;0.40;;;;;;;18.90;39.52;96625.75;29395;231;63005;-51
2023/06/18 00:20:52;;;;;;;0.40;0.40;;;;;;;18.90;39.61;96619.47;29395;263;63009;-51
2023/06/18 00:21:24;;;;;;;0.40;0.40;;;;;;;18.89;39.53;96623.34;29394;197;64009;-50
2023/06/18 00:21:56;;;;;;;0.40;0.40;;;;;;;18.87;39.71;96622.91;29395;209;63009;-50
2023/06/18 00:22:31;;;;;;;0.40;0.40;;;;;;;18.86;39.59;96621.31;29395;196;63005;-51
2023/06/18 00:23:02;;;;;;;0.40;0.40;;;;;;;18.87;39.63;96620.16;29395;218;63005;-51
2023/06/18 00:23:35;;;;;;;0.40;0.40;;;;;;;18.86;39.78;96624.06;29395;289;63009;-52
2023/06/18 00:24:06;;;;;;;0.40;0.40;;;;;;;18.85;39.73;96616.97;29395;214;63009;-51
2023/06/18 00:24:39;;;;;;;0.40;0.40;;;;;;;18.85;39.79;96627.97;29395;205;63004;-51
2023/06/18 00:25:10;;;;;;;0.40;0.40;;;;;;;18.83;39.66;96620.06;29395;219;63009;-51
2023/06/18 00:25:42;;;;;;;0.40;0.40;;;;;;;18.83;39.95;96624.75;29395;249;63000;-50
2023/06/18 00:26:17;;;;;;;0.40;0.40;;;;;;;18.83;39.75;96620.06;29395;222;63008;-50
2023/06/18 00:26:48;;;;;;;0.40;0.40;;;;;;;18.84;39.75;96620.88;29394;311;64008;-51
2023/06/18 00:27:20;;;;;;;0.62;0.62;;;;;;;18.83;39.79;96619.25;29395;211;63009;-51
2023/06/18 00:27:55;;;;;;;0.40;0.40;;;;;;;18.84;39.80;96623.63;29395;216;63005;-50
2023/06/18 00:28:28;;;;;;;0.40;0.40;;;;;;;18.82;40.07;96617.66;29395;231;63009;-51
2023/06/18 00:29:01;;;;;;;0.40;0.40;;;;;;;18.80;40.13;96625.47;29395;216;63005;-50
2023/06/18 00:29:32;;;;;;;0.40;0.40;;;;;;;18.79;39.98;96621.91;29395;227;63009;-57
2023/06/18 00:30:06;;;;;;;0.47;0.47;;;;;;;18.79;39.88;96623.87;29395;286;63005;-49
2023/06/18 00:30:37;;;;;;;0.40;0.40;;;;;;;18.78;39.88;96617.56;29395;230;63009;-50
2023/06/18 00:31:11;;;;;;;0.40;0.40;;;;;;;18.79;39.95;96618.38;29395;351;63005;-50
2023/06/18 00:31:43;;;;;;;0.40;0.40;;;;;;;18.80;40.08;96617.22;29395;198;63004;-51
2023/06/18 00:32:15;;;;;;;0.40;0.40;;;;;;;18.79;40.13;96618.38;29394;237;64009;-50
2023/06/18 00:32:48;;;;;;;0.30;0.30;;;;;;;18.77;39.92;96615.19;29395;226;63009;-52
2023/06/18 00:33:19;;;;;;;0.40;0.40;;;;;;;18.77;40.17;96615.19;29395;222;63004;-49
2023/06/18 00:33:50;;;;;;;0.40;0.40;;;;;;;18.75;40.33;96612.78;29395;211;63008;-51
2023/06/18 00:34:28;;;;;;;0.30;0.30;;;;;;;18.73;40.26;96618.63;29395;196;63004;-50
2023/06/18 00:35:00;;;;;;;0.40;0.40;;;;;;;18.73;40.23;96615.06;29395;363;63025;-50
2023/06/18 00:35:32;;;;;;;0.40;0.40;;;;;;;18.73;40.05;96615.06;29395;234;63005;-51
2023/06/18 00:36:07;;;;;;;0.40;0.40;;;;;;;18.72;40.45;96618.97;29395;205;63009;-50
2023/06/18 00:36:39;;;;;;;0.30;0.30;;;;;;;18.72;40.41;96614.28;29394;203;64009;-51
2023/06/18 00:37:10;;;;;;;0.40;0.40;;;;;;;18.70;40.53;96616.59;29395;210;63009;-50
2023/06/18 00:37:44;;;;;;;0.40;0.40;;;;;;;18.70;40.09;96616.59;29394;202;64009;-50
2023/06/18 00:38:16;;;;;;;0.40;0.40;;;;;;;18.69;40.23;96609.50;29395;236;63009;-49
2023/06/18 00:38:50;;;;;;;0.40;0.40;;;;;;;18.68;40.28;96618.91;29395;236;63004;-49
2023/06/18 00:39:22;;;;;;;0.40;0.40;;;;;;;18.67;40.54;96616.50;29395;236;63009;-51
2023/06/18 00:39:54;;;;;;;0.40;0.40;;;;;;;18.66;40.44;96623.16;29395;213;63004;-50
2023/06/18 00:40:26;;;;;;;0.40;0.40;;;;;;;18.65;40.23;96616.84;29395;368;63023;-51
2023/06/18 00:40:57;;;;;;;0.40;0.40;;;;;;;18.65;40.23;96614.09;29395;212;63004;-50
2023/06/18 00:41:30;;;;;;;0.40;0.40;;;;;;;18.64;40.39;96623.50;29395;219;63008;-51
2023/06/18 00:42:02;;;;;;;0.40;0.40;;;;;;;18.63;40.22;96621.91;29395;225;63001;-50
2023/06/18 00:42:36;;;;;;;0.30;0.30;;;;;;;18.61;40.26;96618.72;29395;218;63009;-50
2023/06/18 00:43:08;;;;;;;0.40;0.40;;;;;;;18.60;40.56;96619.84;29394;283;64009;-51
2023/06/18 00:43:39;;;;;;;0.40;0.40;;;;;;;18.60;40.71;96622.59;29395;309;63009;-57
2023/06/18 00:44:11;;;;;;;0.30;0.30;;;;;;;18.60;40.51;96610.81;29394;202;64009;-49
2023/06/18 00:44:42;;;;;;;0.40;0.40;;;;;;;18.60;40.51;96617.09;29394;203;64013;-49
2023/06/18 00:45:13;;;;;;;0.40;0.40;;;;;;;18.60;40.43;96621.81;29395;228;63005;-50
2023/06/18 00:45:46;;;;;;;0.40;0.40;;;;;;;18.58;40.62;96613.88;29395;236;63027;-49
2023/06/18 00:46:17;;;;;;;0.40;0.40;;;;;;;18.57;40.57;96612.28;29395;209;63004;-49
2023/06/18 00:46:51;;;;;;;0.40;0.40;;;;;;;18.56;40.76;96613.44;29395;199;63018;-49
2023/06/18 00:47:23;;;;;;;0.40;0.40;;;;;;;18.56;40.42;96616.19;29395;204;63000;-50
2023/06/18 00:47:55;;;;;;;1.05;1.05;;;;;;;18.56;40.36;96613.44;29395;198;63013;-50
2023/06/18 00:48:28;;;;;;;0.40;0.40;;;;;;;18.55;40.48;96609.09;29395;297;63007;-50
2023/06/18 00:48:59;;;;;;;0.40;0.40;;;;;;;18.52;40.50;96604.28;29395;235;63008;-50
2023/06/18 00:49:31;;;;;;;0.40;0.40;;;;;;;18.53;40.61;96610.59;29394;229;64008;-51
2023/06/18 00:50:05;;;;;;;0.40;0.40;;;;;;;18.52;40.69;96609.78;29395;228;63009;-49
2023/06/18 00:50:37;;;;;;;0.40;0.40;;;;;;;18.51;40.85;96608.19;29395;296;63005;-50
2023/06/18 00:51:10;;;;;;;0.40;0.40;;;;;;;18.51;40.53;96615.63;29395;305;63009;-51
2023/06/18 00:51:47;;;;;;;0.37;0.37;;;;;;;18.49;40.73;96605.00;29395;209;63005;-51
2023/06/18 00:52:23;;;;;;;0.40;0.40;;;;;;;18.49;40.59;96610.47;29395;220;63009;-51
2023/06/18 00:52:59;;;;;;;0.40;0.40;;;;;;;18.48;40.72;96619.06;29395;366;63005;-50
2023/06/18 00:53:32;;;;;;;0.40;0.40;;;;;;;18.46;40.89;96613.94;29395;198;63009;-50
2023/06/18 00:54:04;;;;;;;0.40;0.40;;;;;;;18.46;40.85;96605.69;29395;229;63004;-57
2023/06/18 00:54:36;;;;;;;0.40;0.40;;;;;;;18.47;40.81;96614.72;29394;367;64013;-51
2023/06/18 00:55:08;;;;;;;0.40;0.40;;;;;;;18.45;40.81;96609.59;29394;209;64009;-49
2023/06/18 00:55:41;;;;;;;0.40;0.40;;;;;;;18.44;40.68;96607.97;29395;218;63009;-51
2023/06/18 00:56:13;;;;;;;0.40;0.40;;;;;;;18.47;40.85;96614.72;29395;270;63004;-50
2023/06/18 00:56:50;;;;;;;0.40;0.40;;;;;;;18.45;40.81;96606.03;29394;208;64013;-49
2023/06/18 00:57:23;;;;;;;0.40;0.40;;;;;;;18.42;40.75;96605.59;29395;242;63001;-50
2023/06/18 00:58:02;;;;;;;0.40;0.40;;;;;;;18.42;40.67;96613.03;29395;226;63009;-51
2023/06/18 00:58:35;;;;;;;0.40;0.40;;;;;;;18.41;40.97;96608.69;29395;206;63005;-50
2023/06/18 00:59:06;;;;;;;0.40;0.40;;;;;;;18.40;40.85;96612.56;29395;196;63009;-49
2023/06/18 00:59:38;;;;;;;0.40;0.40;;;;;;;18.40;41.13;96607.09;29394;206;64009;-49
2023/06/18 01:00:12;;;;;;;0.40;0.40;;;;;;;18.40;41.00;96607.09;29395;210;63009;-49
2023/06/18 01:00:44;;;;;;;0.40;0.40;;;;;;;18.40;40.95;96609.81;29395;277;63005;-50
2023/06/18 01:01:19;;;;;;;0.40;0.40;;;;;;;18.38;40.92;96610.19;29395;251;63009;-50
2023/06/18 01:01:53;;;;;;;0.40;0.40;;;;;;;18.37;41.07;96605.84;29395;222;63004;-50
2023/06/18 01:02:25;;;;;;;0.40;0.40;;;;;;;18.37;41.06;96607.78;29395;205;63009;-50
2023/06/18 01:02:59;;;;;;;0.30;0.30;;;;;;;18.36;41.17;96611.69;29395;236;63004;-49
2023/06/18 01:03:32;;;;;;;0.40;0.40;;;;;;;18.35;41.10;96607.34;29395;272;63004;-50
2023/06/18 01:04:05;;;;;;;0.40;0.40;;;;;;;18.35;41.04;96610.09;29394;216;64008;-56
2023/06/18 01:04:38;;;;;;;0.40;0.40;;;;;;;18.34;41.01;96605.75;29395;210;63008;-50
2023/06/18 01:05:09;;;;;;;0.40;0.40;;;;;;;18.32;41.14;96606.09;29395;239;63005;-50
2023/06/18 01:05:42;;;;;;;1.10;1.10;;;;;;;18.32;41.18;96610.81;29395;205;63009;-51
2023/06/18 01:06:18;;;;;;;0.40;0.40;;;;;;;18.32;41.15;96613.53;29394;228;64009;-50
2023/06/18 01:06:53;;;;;;;0.40;0.40;;;;;;;18.32;41.23;96610.81;29395;196;63014;-50
2023/06/18 01:07:26;;;;;;;0.50;0.50;;;;;;;18.31;41.44;96603.72;29395;218;63005;-50
2023/06/18 01:08:00;;;;;;;0.40;0.40;;;;;;;18.30;41.32;96607.59;29395;228;63009;-51
2023/06/18 01:08:33;;;;;;;0.40;0.40;;;;;;;18.29;41.31;96611.50;29395;198;63005;-50
2023/06/18 01:09:04;;;;;;;0.40;0.40;;;;;;;18.28;41.32;96604.41;29395;261;63009;-50
2023/06/18 01:09:36;;;;;;;0.50;0.50;;;;;;;18.26;41.25;96612.19;29395;210;63004;-56
2023/06/18 01:10:08;;;;;;;0.30;0.30;;;;;;;18.24;41.37;96611.75;29395;287;63004;-51
2023/06/18 01:10:41;;;;;;;0.40;0.40;;;;;;;18.24;41.33;96609.00;29394;234;64004;-56
2023/06/18 01:11:12;;;;;;;0.40;0.40;;;;;;;18.24;41.79;96609.00;29395;205;63009;-51
2023/06/18 01:11:45;;;;;;;0.40;0.40;;;;;;;18.23;41.79;96612.88;29394;322;64008;-50
2023/06/18 01:12:17;;;;;;;0.40;0.40;;;;;;;18.22;41.65;96611.28;29395;196;63008;-51
2023/06/18 01:12:49;;;;;;;0.40;0.40;;;;;;;18.20;41.66;96614.38;29395;222;63005;-50
2023/06/18 01:13:20;;;;;;;0.40;0.40;;;;;;;18.18;41.72;96611.19;29395;295;63009;-50
2023/06/18 01:13:52;;;;;;;0.40;0.40;;;;;;;18.18;41.61;96604.88;29395;372;63005;-50
2023/06/18 01:14:28;;;;;;;0.40;0.40;;;;;;;18.19;41.82;96611.97;29395;220;63009;-48
2023/06/18 01:15:00;;;;;;;0.32;0.32;;;;;;;18.19;41.88;96611.97;29395;234;63005;-50
2023/06/18 01:15:32;;;;;;;0.40;0.40;;;;;;;18.17;41.76;96608.78;29395;197;63009;-50
2023/06/18 01:16:07;;;;;;;0.40;0.40;;;;;;;18.16;42.03;96618.97;29394;240;64005;-50
2023/06/18 01:16:46;;;;;;;0.40;0.40;;;;;;;18.14;41.91;96604.00;29395;238;63004;-50
2023/06/18 01:17:22;;;;;;;2.03;1.85;;;;;;;18.15;41.72;96606.38;29395;293;63004;-51
2023/06/18 01:17:56;;;;;;;0.40;0.40;;;;;;;18.15;41.93;96611.06;29395;215;63009;-50
2023/06/18 01:18:29;;;;;;;0.40;0.40;;;;;;;18.14;42.02;96614.97;29395;208;63004;-49
2023/06/18 01:19:01;;;;;;;0.40;0.40;;;;;;;18.13;41.79;96613.38;29395;359;63004;-49
2023/06/18 01:19:58;;;;;;;0.47;0.47;;;;;;;18.13;41.99;96602.37;29395;252;63004;-51
2023/06/18 01:20:30;;;;;;;0.40;0.40;;;;;;;18.09;42.13;96608.56;29394;253;64014;-51
2023/06/18 01:21:09;;;;;;;0.40;0.40;;;;;;;18.07;42.03;96605.38;29395;329;63000;-52
2023/06/18 01:21:46;;;;;;;0.40;0.40;;;;;;;18.04;42.07;96606.06;29395;247;63009;-49
2023/06/18 01:22:37;;;;;;;0.40;0.40;;;;;;;18.02;42.34;96608.34;29395;207;63005;-49
2023/06/18 01:23:29;;;;;;;0.40;0.40;;;;;;;17.99;42.68;96608.28;29395;221;63009;-50
2023/06/18 01:24:23;;;;;;;0.40;0.40;;;;;;;17.94;42.54;96606.56;29395;217;63004;-50
2023/06/18 01:25:02;;;;;;;0.40;0.40;;;;;;;17.91;42.87;96612.75;29394;207;64013;-57
2023/06/18 01:25:37;;;;;;;1.20;1.20;;;;;;;17.91;42.93;96606.47;29394;219;64009;-51
2023/06/18 01:26:09;;;;;;;0.40;0.40;;;;;;;17.89;42.81;96612.31;29395;243;63008;-51
2023/06/18 01:26:41;;;;;;;0.40;0.40;;;;;;;17.87;42.89;96600.88;29395;262;63004;-51
2023/06/18 01:27:16;;;;;;;0.40;0.40;;;;;;;17.85;42.98;96608.66;29395;215;63008;-50
2023/06/18 01:27:50;;;;;;;0.40;0.40;;;;;;;17.83;42.91;96605.44;29395;231;63005;-57
2023/06/18 01:28:22;;;;;;;0.40;0.40;;;;;;;17.82;43.15;96614.03;29395;215;63009;-51
2023/06/18 01:28:58;;;;;;;0.40;0.40;;;;;;;17.81;43.09;96612.44;29395;212;63005;-50
2023/06/18 01:29:31;;;;;;;0.40;0.40;;;;;;;17.78;43.33;96613.91;29395;253;63022;-50
2023/06/18 01:30:05;;;;;;;0.40;0.40;;;;;;;17.75;43.13;96609.13;29395;197;63005;-50
2023/06/18 01:30:38;;;;;;;0.40;0.40;;;;;;;17.72;43.16;96612.56;29394;321;64013;-50
2023/06/18 01:31:10;;;;;;;0.40;0.40;;;;;;;17.69;43.45;96610.50;29395;306;63000;-49
2023/06/18 01:31:44;;;;;;;0.40;0.40;;;;;;;17.66;43.52;96608.47;29395;227;63009;-51
2023/06/18 01:32:16;;;;;;;0.40;0.40;;;;;;;17.65;43.33;96615.09;29395;197;63004;-50
2023/06/18 01:32:47;;;;;;;0.50;0.50;;;;;;;17.64;43.56;96607.97;29395;254;63009;-50
2023/06/18 01:33:21;;;;;;;0.40;0.40;;;;;;;17.63;43.75;96611.88;29395;364;63004;-50
2023/06/18 01:33:54;;;;;;;0.40;0.40;;;;;;;17.62;43.57;96611.06;29395;215;63008;-52
2023/06/18 01:34:27;;;;;;;0.40;0.40;;;;;;;17.61;43.64;96608.66;29395;300;63011;-51
2023/06/18 01:34:59;;;;;;;0.50;0.50;;;;;;;17.59;43.66;96610.94;29395;252;63009;-51
2023/06/18 01:35:30;;;;;;;0.40;0.40;;;;;;;17.59;43.79;96608.22;29394;206;64009;-56
2023/06/18 01:36:02;;;;;;;0.40;0.40;;;;;;;17.56;43.83;96617.94;29395;197;63009;-51
2023/06/18 01:37:03;;;;;;;1.58;1.58;;;;;;;17.55;44.19;96612.78;29394;379;64009;-51
2023/06/18 01:38:19;;;;;;;0.50;0.50;;;;;;;17.53;44.06;96606.84;29377;231;125018;-51
2023/06/18 01:38:56;;;;;;;0.43;0.43;;;;;;;17.52;43.91;96610.72;29395;217;63004;-50
2023/06/18 01:39:52;;;;;;;0.40;0.40;;;;;;;17.52;44.20;96610.72;29395;230;63000;-51
2023/06/18 01:40:52;;;;;;;0.40;0.40;;;;;;;17.50;43.89;96607.53;29394;298;64013;-50
2023/06/18 01:41:29;;;;;;;0.50;0.50;;;;;;;17.49;43.85;96614.94;29394;202;64008;-51
2023/06/18 01:42:19;;;;;;;0.40;0.40;;;;;;;17.49;44.21;96612.22;29394;227;64009;-51
2023/06/18 01:42:59;;;;;;;0.40;0.40;;;;;;;17.50;44.12;96613.00;29395;200;63005;-51
2023/06/18 01:43:40;;;;;;;0.50;0.50;;;;;;;17.51;44.27;96611.88;29416;232;64013;-50
2023/06/18 01:44:18;;;;;;;0.50;0.50;;;;;;;17.50;44.20;96613.81;29417;202;63005;-50
2023/06/18 01:44:57;;;;;;;0.40;0.40;;;;;;;17.52;43.89;96611.53;29395;208;63019;-51
2023/06/18 01:46:17;;;;;;;0.40;0.40;;;;;;;17.54;44.06;96613.94;29395;206;63005;-51
2023/06/18 01:46:52;;;;;;;0.50;0.50;;;;;;;17.55;44.00;96616.31;29394;233;64013;-51
2023/06/18 01:47:27;;;;;;;0.50;0.50;;;;;;;17.54;44.11;96605.69;29395;238;63004;-51
2023/06/18 01:48:04;;;;;;;0.50;0.50;;;;;;;17.54;43.98;96613.94;29395;206;63009;-50
2023/06/18 01:48:41;;;;;;;0.40;0.40;;;;;;;17.55;44.00;96610.03;29394;214;64008;-51
2023/06/18 01:49:15;;;;;;;0.47;0.47;;;;;;;17.56;43.96;96611.63;29395;241;63009;-51
2023/06/18 01:49:47;;;;;;;0.50;0.50;;;;;;;17.57;44.00;96610.50;29395;197;63005;-51
2023/06/18 01:50:21;;;;;;;0.40;0.40;;;;;;;17.56;43.80;96609.69;29395;241;63009;-51
2023/06/18 01:50:55;;;;;;;0.40;0.40;;;;;;;17.57;43.92;96613.25;29394;208;64009;-51
2023/06/18 01:51:31;;;;;;;0.40;0.40;;;;;;;17.59;43.96;96608.22;29395;230;63009;-52
2023/06/18 01:52:07;;;;;;;0.40;0.40;;;;;;;17.59;43.89;96606.28;29394;211;64009;-51
2023/06/18 01:52:43;;;;;;;0.50;0.50;;;;;;;17.59;43.66;96614.50;29395;197;63009;-50
2023/06/18 01:53:21;;;;;;;0.40;0.40;;;;;;;17.61;43.83;96614.16;29395;254;63005;-52
2023/06/18 01:53:56;;;;;;;0.40;0.40;;;;;;;17.61;44.09;96611.41;29394;241;64013;-50
2023/06/18 01:54:28;;;;;;;0.40;0.40;;;;;;;17.61;43.61;96614.16;29394;203;64001;-51
2023/06/18 01:55:03;;;;;;;0.40;0.40;;;;;;;17.60;43.76;96607.06;29395;256;63009;-51
2023/06/18 01:55:37;;;;;;;0.40;0.40;;;;;;;17.60;43.95;96607.88;29395;197;63004;-51
2023/06/18 01:56:13;;;;;;;2.60;2.05;;;;;;;17.60;43.75;96615.28;29395;313;63008;-50
2023/06/18 01:56:45;;;;;;;0.40;0.40;;;;;;;17.58;43.55;96612.09;29394;260;64008;-57
2023/06/18 01:57:16;;;;;;;0.40;0.40;;;;;;;17.59;43.77;96613.69;29395;244;63014;-52
2023/06/18 01:57:48;;;;;;;0.43;0.43;;;;;;;17.59;43.74;96613.69;29395;273;63008;-51
2023/06/18 01:58:21;;;;;;;0.40;0.40;;;;;;;17.59;43.61;96610.94;29395;237;63009;-51
2023/06/18 01:58:53;;;;;;;0.40;0.40;;;;;;;17.62;43.79;96615.75;29395;187;63012;-51
2023/06/18 01:59:25;;;;;;;0.40;0.40;;;;;;;17.61;43.71;96605.91;29395;202;63009;-51
2023/06/18 01:59:57;;;;;;;0.40;0.40;;;;;;;17.63;43.86;96611.88;29394;280;64009;-51
2023/06/18 02:00:28;;;;;;;0.40;0.40;;;;;;;17.65;43.59;96606.88;29395;209;63019;-51
2023/06/18 02:01:00;;;;;;;0.40;0.40;;;;;;;17.63;43.56;96600.91;29394;199;64009;-51
2023/06/18 02:01:34;;;;;;;0.40;0.40;;;;;;;17.64;43.52;96605.25;29395;220;63009;-51
2023/06/18 02:02:09;;;;;;;0.50;0.50;;;;;;;17.66;43.84;96605.72;29395;347;63004;-51
2023/06/18 02:02:41;;;;;;;0.47;0.47;;;;;;;17.65;43.60;96604.13;29395;209;63009;-51
2023/06/18 02:03:12;;;;;;;0.50;0.50;;;;;;;17.65;43.50;96604.91;29395;286;63004;-51
2023/06/18 02:03:43;;;;;;;0.40;0.40;;;;;;;17.65;43.59;96604.13;29395;284;63018;-52
2023/06/18 02:04:14;;;;;;;0.40;0.40;;;;;;;17.63;43.61;96609.94;29395;255;63004;-51
2023/06/18 02:04:47;;;;;;;0.40;0.40;;;;;;;17.61;43.63;96608.66;29395;211;63014;-52
2023/06/18 02:05:19;;;;;;;0.40;0.40;;;;;;;17.58;43.96;96610.16;29395;203;63005;-57
2023/06/18 02:05:50;;;;;;;0.40;0.40;;;;;;;17.56;44.08;96606.16;29394;309;64009;-51
2023/06/18 02:06:21;;;;;;;0.40;0.40;;;;;;;17.54;43.95;96609.25;29394;221;64009;-51
2023/06/18 02:06:54;;;;;;;0.40;0.40;;;;;;;17.54;43.58;96608.44;29395;207;63009;-51
2023/06/18 02:07:25;;;;;;;0.60;0.60;;;;;;;17.53;43.68;96612.31;29394;229;64009;-51
2023/06/18 02:07:57;;;;;;;0.40;0.40;;;;;;;17.51;43.95;96609.94;29395;298;63009;-50
2023/06/18 02:08:28;;;;;;;0.40;0.40;;;;;;;17.52;43.83;96610.72;29395;225;63005;-50
2023/06/18 02:08:59;;;;;;;0.40;0.40;;;;;;;17.54;43.79;96613.94;29395;274;63009;-51
2023/06/18 02:09:31;;;;;;;1.42;1.42;;;;;;;17.53;43.62;96606.84;29394;258;64009;-50
2023/06/18 02:10:02;;;;;;;0.40;0.40;;;;;;;17.53;43.90;96612.31;29395;230;63009;-51
2023/06/18 02:10:33;;;;;;;0.40;0.40;;;;;;;17.52;44.10;96617.00;29395;302;63004;-51
2023/06/18 02:11:05;;;;;;;0.50;0.50;;;;;;;17.55;43.75;96615.53;29395;196;63008;-50
2023/06/18 02:11:36;;;;;;;0.40;0.40;;;;;;;17.55;43.87;96608.09;29395;290;63004;-51
2023/06/18 02:12:09;;;;;;;0.40;0.40;;;;;;;17.59;43.88;96616.44;29394;328;64014;-50
2023/06/18 02:12:43;;;;;;;0.40;0.40;;;;;;;17.60;43.80;96612.56;29395;247;63005;-58
2023/06/18 02:13:14;;;;;;;0.40;0.40;;;;;;;17.60;43.48;96620.78;29394;202;64009;-50
2023/06/18 02:13:46;;;;;;;3.92;3.70;;;;;;;17.59;43.89;96619.19;29395;225;63009;-57
2023/06/18 02:14:17;;;;;;;0.40;0.40;;;;;;;17.57;43.64;96618.72;29395;224;63009;-50
2023/06/18 02:14:49;;;;;;;0.40;0.40;;;;;;;17.56;43.54;96617.13;29395;197;63009;-51
2023/06/18 02:15:21;;;;;;;0.40;0.40;;;;;;;17.55;43.63;96618.28;29395;197;63023;-51
2023/06/18 02:15:53;;;;;;;0.40;0.40;;;;;;;17.53;43.81;96610.38;29395;206;63004;-51
2023/06/18 02:16:24;;;;;;;0.40;0.40;;;;;;;17.53;43.74;96617.81;29395;220;63009;-51
2023/06/18 02:16:56;;;;;;;0.40;0.40;;;;;;;17.51;43.89;96617.34;29395;317;63004;-51
2023/06/18 02:17:30;;;;;;;0.40;0.40;;;;;;;17.50;44.11;96615.75;29394;254;64013;-51
2023/06/18 02:18:02;;;;;;;0.50;0.50;;;;;;;17.50;44.15;96618.50;29395;199;63000;-50
2023/06/18 02:18:33;;;;;;;0.40;0.40;;;;;;;17.48;43.87;96615.28;29395;263;63008;-51
2023/06/18 02:19:08;;;;;;;0.50;0.50;;;;;;;17.48;44.27;96616.09;29395;202;63004;-51
2023/06/18 02:19:43;;;;;;;0.40;0.40;;;;;;;17.48;43.95;96610.59;29395;236;63009;-58
2023/06/18 02:20:14;;;;;;;0.40;0.40;;;;;;;17.52;44.12;96610.72;29395;298;63000;-51
2023/06/18 02:20:46;;;;;;;0.47;0.47;;;;;;;17.50;43.99;96611.06;29395;214;63009;-57
2023/06/18 02:21:17;;;;;;;0.50;0.50;;;;;;;17.48;44.15;96612.56;29395;203;63005;-51
2023/06/18 02:21:48;;;;;;;0.40;0.40;;;;;;;17.47;44.11;96608.22;29395;207;63009;-51
2023/06/18 02:22:20;;;;;;;0.40;0.40;;;;;;;17.46;44.21;96609.34;29394;212;64009;-51
2023/06/18 02:22:52;;;;;;;0.45;0.45;;;;;;;17.45;44.11;96616.78;29395;269;63004;-57
2023/06/18 02:23:23;;;;;;;0.40;0.40;;;;;;;17.43;44.30;96608.09;29395;258;63000;-52
2023/06/18 02:24:01;;;;;;;0.40;0.40;;;;;;;17.41;44.60;96608.44;29395;219;63009;-50
2023/06/18 02:24:32;;;;;;;0.50;0.50;;;;;;;17.41;44.47;96605.69;29395;240;63004;-51
2023/06/18 02:25:12;;;;;;;0.40;0.40;;;;;;;17.44;44.45;96609.69;29395;254;63004;-52
2023/06/18 02:25:44;;;;;;;0.40;0.40;;;;;;;17.43;44.41;96614.38;29395;234;63004;-50
2023/06/18 02:26:16;;;;;;;0.77;0.77;;;;;;;17.42;44.33;96620.22;29395;256;63009;-51
2023/06/18 02:26:48;;;;;;;0.40;0.40;;;;;;;17.39;44.50;96610.72;29395;203;63012;-51
2023/06/18 02:27:19;;;;;;;0.60;0.60;;;;;;;17.36;44.54;96619.63;29395;199;63009;-51
2023/06/18 02:27:54;;;;;;;0.40;0.40;;;;;;;17.34;44.46;96616.44;29394;320;64009;-51
2023/06/18 02:28:26;;;;;;;0.40;0.40;;;;;;;17.33;44.78;96612.09;29395;249;63009;-51
2023/06/18 02:28:59;;;;;;;0.40;0.40;;;;;;;17.32;44.69;96612.47;29395;202;63000;-50
2023/06/18 02:29:30;;;;;;;0.40;0.40;;;;;;;17.32;44.77;96612.47;29395;199;63009;-57
2023/06/18 02:30:03;;;;;;;0.40;0.40;;;;;;;17.29;44.70;96602.97;29395;211;63011;-51
2023/06/18 02:30:34;;;;;;;0.40;0.40;;;;;;;17.29;45.09;96613.94;29395;254;63017;-51
2023/06/18 02:31:06;;;;;;;0.40;0.40;;;;;;;17.29;44.93;96619.44;29395;216;63004;-51
2023/06/18 02:31:39;;;;;;;0.40;0.40;;;;;;;17.27;44.96;96616.22;29395;232;63009;-51
2023/06/18 02:32:10;;;;;;;0.55;0.55;;;;;;;17.25;44.87;96615.78;29394;225;64009;-51
2023/06/18 02:32:41;;;;;;;0.40;0.40;;;;;;;17.24;44.98;96608.69;29395;197;63009;-51
2023/06/18 02:33:17;;;;;;;0.40;0.40;;;;;;;17.22;44.93;96616.44;29395;255;63004;-51
2023/06/18 02:33:48;;;;;;;0.40;0.40;;;;;;;17.19;45.44;96625.34;29395;293;63028;-51
2023/06/18 02:34:19;;;;;;;0.40;0.40;;;;;;;17.15;45.34;96618.94;29395;234;63005;-50
2023/06/18 02:34:51;;;;;;;0.40;0.40;;;;;;;17.14;45.38;96622.84;29395;202;63009;-50
2023/06/18 02:35:22;;;;;;;0.40;0.40;;;;;;;17.13;45.80;96620.44;29395;226;63005;-51
2023/06/18 02:35:54;;;;;;;0.40;0.40;;;;;;;17.11;45.27;96623.50;29395;244;63009;-52
2023/06/18 02:36:25;;;;;;;0.32;0.32;;;;;;;17.11;45.40;96620.78;29395;254;63005;-51
2023/06/18 02:36:57;;;;;;;0.40;0.40;;;;;;;17.12;45.49;96618.84;29395;205;63009;-52
2023/06/18 02:37:28;;;;;;;0.40;0.40;;;;;;;17.10;45.60;96616.44;29394;204;64009;-51
2023/06/18 02:38:00;;;;;;;0.40;0.40;;;;;;;17.10;45.58;96621.91;29395;202;63009;-51
2023/06/18 02:38:31;;;;;;;0.40;0.40;;;;;;;17.09;45.44;96625.78;29395;223;63004;-50
2023/06/18 02:39:03;;;;;;;0.40;0.40;;;;;;;17.10;45.45;96613.69;29395;260;63009;-51
2023/06/18 02:39:36;;;;;;;0.35;0.35;;;;;;;17.11;45.72;96623.50;29395;203;63004;-51
2023/06/18 02:40:09;;;;;;;0.40;0.40;;;;;;;17.10;45.55;96621.91;29395;254;63009;-51
2023/06/18 02:40:42;;;;;;;0.40;0.40;;;;;;;17.11;45.80;96629.00;29395;242;63004;-51